Time,TemperatureF,DewpointF,PressureIn,WindDirection,WindDirectionDegrees,WindSpeedMPH,WindSpeedGustMPH,Humidity,HourlyPrecipIn,Conditions,Clouds,dailyrainin,SoftwareType,DateUTC
2012-02-07 00:00:00,45.1,17.0,30.00,ESE,117,1.0,2.0,32,0.00,,,0.00,weatherlink.com 1.10,2012-02-07 08:00:00,
2012-02-07 00:15:00,44.0,18.0,30.01,NE,54,1.0,2.0,35,0.00,,,0.00,weatherlink.com 1.10,2012-02-07 08:15:00,
2012-02-07 00:31:00,42.1,18.0,30.01,NE,54,0.0,3.0,38,0.00,,,0.00,weatherlink.com 1.10,2012-02-07 08:31:00,
2012-02-07 00:45:00,42.2,16.0,30.00,NE,52,0.0,1.0,34,0.00,,,0.00,weatherlink.com 1.10,2012-02-07 08:45:00,
2012-02-07 01:00:00,42.3,16.0,30.00,NNE,25,0.0,1.0,35,0.00,,,0.00,weatherlink.com 1.10,2012-02-07 09:00:00,
2012-02-07 01:15:00,40.9,18.0,30.00,NNE,31,1.0,2.0,39,0.00,,,0.00,weatherlink.com 1.10,2012-02-07 09:15:00,
2012-02-07 01:30:00,40.3,18.0,30.00,NE,48,0.0,1.0,40,0.00,,,0.00,weatherlink.com 1.10,2012-02-07 09:30:00,
2012-02-07 01:45:00,40.7,19.0,30.00,NNE,12,0.0,2.0,41,0.00,,,0.00,weatherlink.com 1.10,2012-02-07 09:45:00,
2012-02-07 02:00:00,39.9,19.0,30.00,NNE,33,1.0,2.0,44,0.00,,,0.00,weatherlink.com 1.10,2012-02-07 10:00:00,
2012-02-07 02:16:00,40.2,18.0,29.99,NNE,28,0.0,0.0,40,0.00,,,0.00,weatherlink.com 1.10,2012-02-07 10:16:00,
2012-02-07 02:31:00,41.1,19.0,29.99,NNE,29,0.0,0.0,42,0.00,,,0.00,weatherlink.com 1.10,2012-02-07 10:31:00,
2012-02-07 02:46:00,41.1,19.0,29.99,NNE,29,0.0,1.0,41,0.00,,,0.00,weatherlink.com 1.10,2012-02-07 10:46:00,
2012-02-07 03:01:00,41.0,21.0,29.99,NNE,26,0.0,1.0,45,0.00,,,0.00,weatherlink.com 1.10,2012-02-07 11:01:00,
2012-02-07 03:16:00,41.3,20.0,29.98,NNE,15,1.0,1.0,43,0.00,,,0.00,weatherlink.com 1.10,2012-02-07 11:16:00,
2012-02-07 03:31:00,40.9,23.0,29.98,NNE,27,0.0,3.0,49,0.00,,,0.00,weatherlink.com 1.10,2012-02-07 11:31:00,
2012-02-07 03:46:00,40.9,23.0,29.97,NNE,27,0.0,1.0,49,0.00,,,0.00,weatherlink.com 1.10,2012-02-07 11:46:00,
2012-02-07 04:01:00,41.9,24.0,29.96,NNE,27,0.0,1.0,49,0.00,,,0.00,weatherlink.com 1.10,2012-02-07 12:01:00,
2012-02-07 04:16:00,44.0,21.0,29.96,ESE,106,0.0,1.0,40,0.00,,,0.00,weatherlink.com 1.10,2012-02-07 12:16:00,
2012-02-07 04:31:00,45.0,19.0,29.96,ESE,106,0.0,2.0,36,0.00,,,0.00,weatherlink.com 1.10,2012-02-07 12:31:00,
2012-02-07 04:46:00,45.3,18.0,29.96,East,98,2.0,4.0,33,0.00,,,0.00,weatherlink.com 1.10,2012-02-07 12:46:00,
2012-02-07 05:01:00,45.8,17.0,29.96,SE,131,2.0,4.0,32,0.00,,,0.00,weatherlink.com 1.10,2012-02-07 13:01:00,
2012-02-07 05:16:00,46.4,18.0,29.95,ESE,115,0.0,3.0,32,0.00,,,0.00,weatherlink.com 1.10,2012-02-07 13:16:00,
2012-02-07 05:31:00,46.4,16.0,29.96,East,89,2.0,4.0,30,0.00,,,0.00,weatherlink.com 1.10,2012-02-07 13:31:00,
2012-02-07 05:46:00,46.3,14.0,29.96,East,85,3.0,3.0,27,0.00,,,0.00,weatherlink.com 1.10,2012-02-07 13:46:00,
2012-02-07 06:01:00,46.3,11.0,29.96,East,90,2.0,4.0,24,0.00,,,0.00,weatherlink.com 1.10,2012-02-07 14:01:00,
2012-02-07 06:16:00,46.6,11.0,29.95,East,85,3.0,6.0,24,0.00,,,0.00,weatherlink.com 1.10,2012-02-07 14:16:00,
2012-02-07 06:31:00,47.3,10.0,29.95,East,93,2.0,5.0,22,0.00,,,0.00,weatherlink.com 1.10,2012-02-07 14:31:00,
2012-02-07 06:46:00,46.6,8.0,29.96,East,81,2.0,4.0,21,0.00,,,0.00,weatherlink.com 1.10,2012-02-07 14:46:00,
2012-02-07 07:01:00,46.6,7.0,29.96,East,92,2.0,3.0,20,0.00,,,0.00,weatherlink.com 1.10,2012-02-07 15:01:00,
2012-02-07 07:16:00,46.9,9.0,29.96,East,84,3.0,6.0,21,0.00,,,0.00,weatherlink.com 1.10,2012-02-07 15:16:00,
2012-02-07 07:31:00,47.8,9.0,29.96,East,83,3.0,4.0,21,0.00,,,0.00,weatherlink.com 1.10,2012-02-07 15:31:00,
2012-02-07 07:46:00,48.5,9.0,29.97,East,84,2.0,4.0,20,0.00,,,0.00,weatherlink.com 1.10,2012-02-07 15:46:00,
2012-02-07 08:01:00,48.4,10.0,29.97,SE,130,0.0,4.0,21,0.00,,,0.00,weatherlink.com 1.10,2012-02-07 16:01:00,
2012-02-07 08:16:00,49.2,11.0,29.97,SE,124,2.0,5.0,21,0.00,,,0.00,weatherlink.com 1.10,2012-02-07 16:16:00,
2012-02-07 08:31:00,49.3,11.0,29.98,ESE,109,2.0,3.0,21,0.00,,,0.00,weatherlink.com 1.10,2012-02-07 16:31:00,
2012-02-07 08:46:00,47.7,10.0,29.98,ESE,109,2.0,6.0,22,0.00,,,0.00,weatherlink.com 1.10,2012-02-07 16:46:00,
2012-02-07 09:01:00,47.3,11.0,29.98,East,82,1.0,4.0,23,0.00,,,0.00,weatherlink.com 1.10,2012-02-07 17:01:00,
2012-02-07 09:16:00,47.4,11.0,29.99,East,82,2.0,5.0,23,0.00,,,0.00,weatherlink.com 1.10,2012-02-07 17:16:00,
2012-02-07 09:31:00,46.9,13.0,29.99,East,85,2.0,6.0,25,0.00,,,0.00,weatherlink.com 1.10,2012-02-07 17:31:00,
2012-02-07 09:46:00,48.0,14.0,30.00,SE,137,3.0,5.0,25,0.00,,,0.00,weatherlink.com 1.10,2012-02-07 17:46:00,
2012-02-07 10:02:00,47.3,14.0,29.99,ESE,115,5.0,5.0,26,0.00,,,0.00,weatherlink.com 1.10,2012-02-07 18:02:00,
2012-02-07 10:16:00,47.3,19.0,29.98,East,79,4.0,6.0,33,0.00,,,0.00,weatherlink.com 1.10,2012-02-07 18:16:00,
2012-02-07 10:32:00,48.4,23.0,29.96,East,80,5.0,7.0,37,0.00,,,0.00,weatherlink.com 1.10,2012-02-07 18:32:00,
2012-02-07 10:47:00,48.6,24.0,29.95,East,95,1.0,8.0,38,0.00,,,0.00,weatherlink.com 1.10,2012-02-07 18:47:00,
2012-02-07 11:02:00,47.9,28.0,29.94,East,84,4.0,9.0,46,0.00,,,0.00,weatherlink.com 1.10,2012-02-07 19:02:00,
2012-02-07 11:17:00,48.8,30.0,29.94,NE,55,4.0,8.0,49,0.00,,,0.00,weatherlink.com 1.10,2012-02-07 19:17:00,
2012-02-07 11:32:00,48.9,28.0,29.94,East,80,5.0,9.0,45,0.00,,,0.00,weatherlink.com 1.10,2012-02-07 19:32:00,
2012-02-07 11:47:00,47.5,29.0,29.94,East,101,3.0,9.0,49,0.00,,,0.00,weatherlink.com 1.10,2012-02-07 19:47:00,
2012-02-07 12:02:00,46.1,35.0,29.93,ESE,114,2.0,5.0,65,0.00,,,0.00,weatherlink.com 1.10,2012-02-07 20:02:00,
2012-02-07 12:17:00,46.0,37.0,29.93,ESE,103,3.0,7.0,71,0.00,,,0.00,weatherlink.com 1.10,2012-02-07 20:17:00,
2012-02-07 12:47:00,48.0,35.0,29.92,East,89,1.0,4.0,60,0.00,,,0.00,weatherlink.com 1.10,2012-02-07 20:47:00,
2012-02-07 13:02:00,46.9,37.0,29.91,ENE,75,4.0,6.0,69,0.00,,,0.00,weatherlink.com 1.10,2012-02-07 21:02:00,
2012-02-07 13:17:00,46.7,36.0,29.90,ENE,65,4.0,9.0,66,0.00,,,0.00,weatherlink.com 1.10,2012-02-07 21:17:00,
2012-02-07 13:32:00,47.4,35.0,29.91,ESE,103,3.0,9.0,62,0.00,,,0.00,weatherlink.com 1.10,2012-02-07 21:32:00,
2012-02-07 14:03:00,45.5,35.0,29.91,East,85,2.0,7.0,68,0.00,,,0.00,weatherlink.com 1.10,2012-02-07 22:03:00,
2012-02-07 14:18:00,45.7,35.0,29.90,East,89,5.0,5.0,66,0.00,,,0.00,weatherlink.com 1.10,2012-02-07 22:18:00,
2012-02-07 14:34:00,44.9,37.0,29.91,East,101,2.0,5.0,74,0.00,,,0.00,weatherlink.com 1.10,2012-02-07 22:34:00,
2012-02-07 15:03:00,46.3,34.0,29.90,ENE,71,3.0,6.0,63,0.00,,,0.00,weatherlink.com 1.10,2012-02-07 23:03:00,
2012-02-07 15:18:00,46.9,33.0,29.90,East,89,3.0,7.0,59,0.00,,,0.00,weatherlink.com 1.10,2012-02-07 23:18:00,
2012-02-07 15:33:00,47.4,31.0,29.91,ESE,120,3.0,3.0,54,0.00,,,0.00,weatherlink.com 1.10,2012-02-07 23:33:00,
2012-02-07 15:48:00,47.2,31.0,29.91,ESE,103,2.0,7.0,54,0.00,,,0.00,weatherlink.com 1.10,2012-02-07 23:48:00,
2012-02-07 16:03:00,46.5,28.0,29.91,ENE,77,2.0,6.0,48,0.00,,,0.00,weatherlink.com 1.10,2012-02-08 00:03:00,
2012-02-07 16:18:00,45.8,26.0,29.92,East,91,2.0,5.0,46,0.00,,,0.00,weatherlink.com 1.10,2012-02-08 00:18:00,
2012-02-07 16:33:00,46.1,25.0,29.91,East,96,0.0,5.0,43,0.00,,,0.00,weatherlink.com 1.10,2012-02-08 00:33:00,
2012-02-07 16:48:00,46.1,23.0,29.93,East,101,2.0,5.0,41,0.00,,,0.00,weatherlink.com 1.10,2012-02-08 00:48:00,
2012-02-07 17:03:00,46.1,22.0,29.93,East,86,5.0,5.0,38,0.00,,,0.00,weatherlink.com 1.10,2012-02-08 01:03:00,
2012-02-07 17:18:00,46.0,21.0,29.94,East,84,3.0,5.0,37,0.00,,,0.00,weatherlink.com 1.10,2012-02-08 01:18:00,
2012-02-07 17:33:00,46.0,21.0,29.94,East,79,2.0,3.0,37,0.00,,,0.00,weatherlink.com 1.10,2012-02-08 01:33:00,
2012-02-07 17:48:00,45.9,24.0,29.95,ESE,104,0.0,3.0,42,0.00,,,0.00,weatherlink.com 1.10,2012-02-08 01:48:00,
2012-02-07 18:03:00,44.4,28.0,29.96,NE,56,3.0,6.0,52,0.00,,,0.00,weatherlink.com 1.10,2012-02-08 02:03:00,
2012-02-07 18:18:00,42.8,30.0,29.97,ENE,64,3.0,8.0,60,0.00,,,0.00,weatherlink.com 1.10,2012-02-08 02:18:00,
2012-02-07 18:33:00,42.8,29.0,29.97,NE,53,1.0,6.0,59,0.00,,,0.00,weatherlink.com 1.10,2012-02-08 02:33:00,
2012-02-07 18:48:00,43.3,30.0,29.98,ESE,110,1.0,1.0,59,0.00,,,0.00,weatherlink.com 1.10,2012-02-08 02:48:00,
2012-02-07 19:03:00,43.7,29.0,29.98,ENE,58,3.0,4.0,56,0.00,,,0.00,weatherlink.com 1.10,2012-02-08 03:03:00,
2012-02-07 19:18:00,43.7,28.0,29.98,East,91,0.0,3.0,54,0.00,,,0.00,weatherlink.com 1.10,2012-02-08 03:18:00,
2012-02-07 19:33:00,43.7,27.0,29.98,ENE,72,0.0,2.0,52,0.00,,,0.00,weatherlink.com 1.10,2012-02-08 03:33:00,
2012-02-07 19:48:00,44.3,26.0,29.99,East,92,3.0,3.0,49,0.00,,,0.00,weatherlink.com 1.10,2012-02-08 03:48:00,
2012-02-07 20:03:00,44.7,23.0,29.99,East,97,2.0,5.0,42,0.00,,,0.00,weatherlink.com 1.10,2012-02-08 04:03:00,
2012-02-07 20:19:00,44.0,26.0,29.99,SW,221,0.0,4.0,49,0.00,,,0.00,weatherlink.com 1.10,2012-02-08 04:19:00,
2012-02-07 20:33:00,44.3,22.0,29.99,ESE,111,2.0,6.0,42,0.00,,,0.00,weatherlink.com 1.10,2012-02-08 04:33:00,
2012-02-07 20:48:00,45.5,22.0,29.98,East,82,4.0,6.0,39,0.00,,,0.00,weatherlink.com 1.10,2012-02-08 04:48:00,
2012-02-07 21:03:00,45.5,23.0,29.99,ESE,121,3.0,6.0,41,0.00,,,0.00,weatherlink.com 1.10,2012-02-08 05:03:00,
2012-02-07 21:18:00,46.5,27.0,29.99,ENE,69,3.0,8.0,46,0.00,,,0.00,weatherlink.com 1.10,2012-02-08 05:18:00,
2012-02-07 21:33:00,46.9,30.0,29.98,East,84,4.0,9.0,52,0.00,,,0.00,weatherlink.com 1.10,2012-02-08 05:33:00,
2012-02-07 21:48:00,47.0,29.0,29.98,NE,54,5.0,7.0,50,0.00,,,0.00,weatherlink.com 1.10,2012-02-08 05:48:00,
2012-02-07 22:03:00,47.0,30.0,29.99,NE,56,4.0,6.0,52,0.00,,,0.00,weatherlink.com 1.10,2012-02-08 06:03:00,
2012-02-07 22:18:00,46.7,31.0,30.00,ENE,57,5.0,10.0,54,0.00,,,0.00,weatherlink.com 1.10,2012-02-08 06:18:00,
2012-02-07 22:33:00,46.7,31.0,30.02,ENE,69,0.0,4.0,55,0.00,,,0.00,weatherlink.com 1.10,2012-02-08 06:33:00,
2012-02-07 22:48:00,45.8,33.0,30.02,ENE,60,2.0,3.0,61,0.00,,,0.00,weatherlink.com 1.10,2012-02-08 06:48:00,
2012-02-07 23:03:00,45.5,33.0,30.02,East,87,0.0,1.0,61,0.00,,,0.00,weatherlink.com 1.10,2012-02-08 07:03:00,
2012-02-07 23:18:00,44.9,34.0,30.02,East,87,0.0,0.0,65,0.00,,,0.00,weatherlink.com 1.10,2012-02-08 07:18:00,
2012-02-07 23:33:00,44.3,32.0,30.02,East,79,0.0,1.0,62,0.00,,,0.00,weatherlink.com 1.10,2012-02-08 07:33:00,
2012-02-07 23:48:00,44.8,30.0,30.02,East,79,0.0,1.0,56,0.00,,,0.00,weatherlink.com 1.10,2012-02-08 07:48:00,